createdAt,value
2022-09-16T00:01:16.461Z,0.80
2022-09-16T00:03:48.034Z,0.70
2022-09-16T00:06:20.241Z,1.40
2022-09-16T00:08:49.479Z,1.30
2022-09-16T00:11:18.635Z,0.80
2022-09-16T00:13:48.224Z,0.60
2022-09-16T00:16:21.150Z,0.90
2022-09-16T00:18:49.541Z,0.80
2022-09-16T00:21:17.534Z,0.60
2022-09-16T00:23:45.821Z,0.50
2022-09-16T00:26:13.908Z,1.00
2022-09-16T00:28:42.256Z,0.50
2022-09-16T00:31:12.653Z,0.60
2022-09-16T00:33:40.695Z,0.40
2022-09-16T00:37:25.021Z,0.80
2022-09-16T00:40:38.646Z,0.60
2022-09-16T00:47:27.838Z,0.60
2022-09-16T00:50:36.534Z,0.90
2022-09-16T00:53:30.622Z,0.40
2022-09-16T00:56:28.601Z,0.90
2022-09-16T00:59:38.532Z,0.80
2022-09-16T01:02:46.500Z,0.70
2022-09-16T01:09:32.585Z,1.60
2022-09-16T01:12:45.051Z,1.10
2022-09-16T01:18:54.575Z,1.20
2022-09-16T01:22:04.273Z,1.40
2022-09-16T01:25:11.991Z,1.80
2022-09-16T01:28:08.565Z,1.10
2022-09-16T01:31:03.620Z,1.20
2022-09-16T01:34:16.587Z,1.30
2022-09-16T01:37:14.865Z,0.90
2022-09-16T01:40:15.743Z,1.10
2022-09-16T01:43:32.006Z,0.80
2022-09-16T01:46:27.643Z,1.10
2022-09-16T01:49:48.570Z,1.20
2022-09-16T01:53:14.137Z,0.70
2022-09-16T01:56:23.492Z,1.10
2022-09-16T01:59:32.642Z,0.80
2022-09-16T02:06:10.943Z,1.00
2022-09-16T02:09:22.506Z,1.20
2022-09-16T02:12:20.676Z,0.90
2022-09-16T02:19:10.720Z,1.20
2022-09-16T02:22:08.316Z,1.00
2022-09-16T02:25:20.524Z,1.20
2022-09-16T02:28:41.556Z,1.00
2022-09-16T02:31:52.320Z,0.80
2022-09-16T02:35:14.553Z,0.90
2022-09-16T02:38:21.579Z,1.20
2022-09-16T02:41:29.230Z,0.90
2022-09-16T02:44:37.527Z,1.30
2022-09-16T02:51:03.608Z,1.00
2022-09-16T02:54:09.522Z,0.80
2022-09-16T02:57:03.583Z,0.90
2022-09-16T03:00:26.882Z,0.70
2022-09-16T03:03:59.650Z,1.00
2022-09-16T03:07:05.574Z,0.70
2022-09-16T03:10:27.112Z,0.90
2022-09-16T03:13:37.575Z,1.00
2022-09-16T03:16:49.572Z,0.80
2022-09-16T03:19:47.635Z,0.60
2022-09-16T03:22:55.567Z,0.70
2022-09-16T03:26:16.040Z,0.50
2022-09-16T03:33:59.816Z,0.80
2022-09-16T03:40:10.175Z,0.70
2022-09-16T03:43:14.838Z,0.80
2022-09-16T03:49:26.739Z,0.80
2022-09-16T03:52:46.667Z,0.80
2022-09-16T03:55:46.540Z,0.70
2022-09-16T03:59:19.599Z,1.00
2022-09-16T04:02:14.714Z,0.90
2022-09-16T04:05:06.581Z,0.70
2022-09-16T04:08:16.610Z,0.80
2022-09-16T04:11:22.517Z,0.70
2022-09-16T04:14:29.615Z,0.80
2022-09-16T04:17:44.544Z,1.20
2022-09-16T04:20:31.759Z,0.90
2022-09-16T04:23:43.693Z,0.70
2022-09-16T04:29:35.594Z,0.90
2022-09-16T04:32:50.589Z,0.90
2022-09-16T04:35:56.173Z,1.00
2022-09-16T04:39:06.917Z,0.70
2022-09-16T04:42:11.138Z,0.80
2022-09-16T04:48:52.653Z,1.00
2022-09-16T04:55:13.583Z,0.80
2022-09-16T04:58:21.524Z,0.70
2022-09-16T05:01:30.687Z,1.00
2022-09-16T05:04:43.607Z,1.00
2022-09-16T05:08:04.557Z,0.90
2022-09-16T05:11:11.667Z,1.00
2022-09-16T05:14:20.494Z,0.90
2022-09-16T05:17:50.326Z,1.10
2022-09-16T05:21:09.217Z,0.70
2022-09-16T05:23:52.394Z,1.10
2022-09-16T05:26:58.864Z,0.90
2022-09-16T05:30:01.559Z,0.80
2022-09-16T05:33:16.850Z,0.80
2022-09-16T05:36:11.548Z,0.70
2022-09-16T05:39:40.032Z,1.00
2022-09-16T05:42:40.985Z,0.70
2022-09-16T05:45:53.936Z,1.40
2022-09-16T05:48:46.272Z,0.90
2022-09-16T05:51:52.384Z,0.90
2022-09-16T05:54:55.844Z,1.00
2022-09-16T05:57:50.428Z,0.90
2022-09-16T06:01:12.621Z,0.70
2022-09-16T06:04:20.647Z,0.60
2022-09-16T06:07:17.403Z,0.60
2022-09-16T06:10:15.585Z,1.10
2022-09-16T06:12:48.148Z,1.20
2022-09-16T06:15:23.753Z,1.00
2022-09-16T06:18:27.732Z,1.20
2022-09-16T06:21:29.331Z,1.00
2022-09-16T06:24:00.129Z,0.80
2022-09-16T06:26:28.510Z,0.80
2022-09-16T06:29:18.790Z,0.70
2022-09-16T06:31:55.685Z,1.10
2022-09-16T06:34:48.095Z,0.90
2022-09-16T06:40:48.469Z,1.20
2022-09-16T06:43:21.567Z,0.80
2022-09-16T06:46:28.200Z,1.10
2022-09-16T06:49:28.656Z,1.20
2022-09-16T06:53:03.615Z,0.90
2022-09-16T06:59:31.371Z,0.90
2022-09-16T07:06:45.235Z,0.80
2022-09-16T07:09:27.269Z,1.30
2022-09-16T07:11:59.742Z,0.80
2022-09-16T07:14:28.891Z,0.80
2022-09-16T07:17:00.298Z,1.20
2022-09-16T07:19:28.754Z,1.30
2022-09-16T07:21:59.827Z,1.00
2022-09-16T07:24:27.991Z,0.80
2022-09-16T07:27:03.422Z,0.70
2022-09-16T07:29:36.752Z,1.30
2022-09-16T07:32:21.317Z,0.80
2022-09-16T07:35:08.834Z,0.70
2022-09-16T07:37:42.765Z,0.60
2022-09-16T07:40:11.206Z,0.70
2022-09-16T07:42:39.947Z,0.60
2022-09-16T07:45:08.429Z,0.90
2022-09-16T07:47:40.109Z,0.80
2022-09-16T07:50:12.309Z,0.70
2022-09-16T08:09:41.015Z,0.60
2022-09-16T08:13:01.265Z,0.90
2022-09-16T08:16:23.685Z,0.70
2022-09-16T08:19:39.636Z,0.90
2022-09-16T08:22:42.856Z,1.50
2022-09-16T08:25:40.696Z,0.70
2022-09-16T08:29:18.415Z,0.70
2022-09-16T08:32:42.738Z,0.60
2022-09-16T08:36:49.624Z,0.50
2022-09-16T09:28:55.543Z,0.60
2022-09-16T09:55:29.878Z,0.50
2022-09-16T09:58:50.901Z,0.50
2022-09-16T10:02:01.006Z,0.60
2022-09-16T10:05:23.568Z,0.70
2022-09-16T10:16:13.581Z,0.80
2022-09-16T10:23:20.377Z,0.80
2022-09-16T10:56:07.869Z,1.40
2022-09-16T10:59:05.573Z,1.00
2022-09-16T11:02:35.132Z,1.90
2022-09-16T11:09:20.810Z,1.20
2022-09-16T11:30:00.242Z,0.80
2022-09-16T11:36:37.554Z,1.00
2022-09-16T11:43:21.050Z,1.00
2022-09-16T11:46:47.173Z,1.00
2022-09-16T11:50:50.887Z,1.10
2022-09-16T12:04:19.536Z,1.70
2022-09-16T12:07:15.203Z,1.10
2022-09-16T12:14:19.800Z,2.00
2022-09-16T12:24:02.089Z,0.90
2022-09-16T12:34:01.977Z,1.10
2022-09-16T12:55:28.322Z,1.10
2022-09-16T13:15:54.160Z,1.20
2022-09-16T13:18:44.506Z,1.10
2022-09-16T13:21:22.258Z,1.90
2022-09-16T13:24:00.785Z,1.40
2022-09-16T13:26:39.736Z,1.20
2022-09-16T13:29:31.290Z,1.30
2022-09-16T13:31:58.188Z,1.10
2022-09-16T13:34:24.885Z,1.60
2022-09-16T13:36:51.564Z,1.30
2022-09-16T13:39:30.580Z,1.20
2022-09-16T13:42:09.887Z,1.10
2022-09-16T13:44:41.666Z,0.90
2022-09-16T13:47:28.045Z,1.00
2022-09-16T13:49:58.679Z,1.10
2022-09-16T13:52:41.920Z,1.00
2022-09-16T13:55:21.549Z,1.10
2022-09-16T13:58:20.189Z,1.10
2022-09-16T14:01:05.060Z,1.00
2022-09-16T14:03:58.873Z,1.10
2022-09-16T14:07:01.347Z,1.20
2022-09-16T14:09:50.413Z,1.00
2022-09-16T14:12:40.012Z,1.20
2022-09-16T14:15:11.183Z,1.00
2022-09-16T14:17:45.592Z,0.90
2022-09-16T14:20:18.688Z,1.00
2022-09-16T14:22:45.343Z,0.90
2022-09-16T14:25:30.667Z,1.10
2022-09-16T14:28:17.730Z,1.30
2022-09-16T14:30:55.415Z,1.00
2022-09-16T14:33:28.564Z,1.00
2022-09-16T14:35:57.119Z,1.00
2022-09-16T14:38:50.156Z,1.40
2022-09-16T14:41:30.254Z,1.30
2022-09-16T14:44:22.110Z,1.10
2022-09-16T14:47:09.056Z,1.00
2022-09-16T14:49:37.734Z,1.00
2022-09-16T14:52:04.685Z,1.40
2022-09-16T14:54:31.285Z,1.40
2022-09-16T14:57:02.987Z,1.20
2022-09-16T14:59:34.683Z,1.30
2022-09-16T15:02:23.352Z,1.20
2022-09-16T15:04:56.573Z,1.50
2022-09-16T15:07:28.703Z,1.40
2022-09-16T15:10:05.025Z,1.30
2022-09-16T15:15:18.496Z,1.40
2022-09-16T15:17:58.524Z,1.50
2022-09-16T15:20:29.824Z,1.20
2022-09-16T15:22:56.553Z,1.00
2022-09-16T15:25:29.894Z,1.00
2022-09-16T15:28:08.597Z,1.10
2022-09-16T15:30:43.979Z,1.60
2022-09-16T15:33:34.427Z,1.10
2022-09-16T15:36:07.152Z,1.30
2022-09-16T15:38:33.642Z,1.40
2022-09-16T15:41:06.704Z,1.30
2022-09-16T15:43:39.736Z,1.60
2022-09-16T15:46:17.312Z,1.00
2022-09-16T15:48:50.691Z,1.30
2022-09-16T15:51:46.947Z,1.30
2022-09-16T15:54:27.472Z,1.00
2022-09-16T15:57:11.515Z,1.40
2022-09-16T15:59:48.376Z,1.20
2022-09-16T16:02:35.010Z,2.00
2022-09-16T16:05:09.882Z,2.00
2022-09-16T16:07:48.570Z,1.50
2022-09-16T16:10:20.079Z,1.60
2022-09-16T16:12:49.610Z,1.60
2022-09-16T16:15:20.386Z,1.70
2022-09-16T16:17:49.256Z,1.50
2022-09-16T16:20:17.267Z,1.50
2022-09-16T16:22:44.623Z,1.50
2022-09-16T16:25:13.170Z,1.70
2022-09-16T16:27:41.922Z,1.00
2022-09-16T16:30:09.179Z,1.50
2022-09-16T16:32:37.859Z,1.00
2022-09-16T16:35:05.557Z,1.10
2022-09-16T16:37:47.969Z,1.10
2022-09-16T16:40:15.489Z,1.20
2022-09-16T16:42:43.236Z,1.80
2022-09-16T16:45:12.385Z,1.70
2022-09-16T16:47:38.838Z,1.80
2022-09-16T16:50:05.492Z,2.00
2022-09-16T16:52:34.016Z,1.50
2022-09-16T16:55:00.519Z,1.60
2022-09-16T16:57:27.477Z,1.30
2022-09-16T16:59:54.587Z,1.40
2022-09-16T17:02:21.453Z,1.50
2022-09-16T17:04:48.007Z,1.40
2022-09-16T17:07:25.857Z,1.40
2022-09-16T17:09:53.639Z,1.70
2022-09-16T17:12:20.270Z,1.70
2022-09-16T17:14:47.037Z,1.60
2022-09-16T17:17:13.555Z,2.90
2022-09-16T17:19:40.106Z,2.90
2022-09-16T17:22:06.817Z,2.40
2022-09-16T17:24:33.959Z,1.80
2022-09-16T17:27:01.234Z,1.80
2022-09-16T17:29:29.408Z,1.50
2022-09-16T17:32:31.804Z,1.80
2022-09-16T17:35:18.897Z,1.50
2022-09-16T17:40:14.352Z,1.90
2022-09-16T17:42:48.691Z,2.10
2022-09-16T17:45:16.344Z,2.70
2022-09-16T17:47:45.409Z,2.50
2022-09-16T17:50:22.262Z,2.40
2022-09-16T17:52:51.585Z,4.60
2022-09-16T17:55:28.257Z,2.50
2022-09-16T17:58:13.205Z,1.90
2022-09-16T18:00:43.877Z,1.70
2022-09-16T18:03:33.746Z,1.80
2022-09-16T18:06:14.417Z,1.40
2022-09-16T18:08:42.215Z,1.20
2022-09-16T18:11:12.205Z,1.50
2022-09-16T18:13:40.078Z,1.00
2022-09-16T18:16:11.409Z,1.30
2022-09-16T18:18:43.128Z,1.50
2022-09-16T18:21:14.556Z,1.30
2022-09-16T18:23:42.116Z,1.50
2022-09-16T18:26:31.906Z,1.60
2022-09-16T18:29:10.412Z,2.30
2022-09-16T18:31:40.413Z,2.30
2022-09-16T18:34:07.236Z,2.50
2022-09-16T18:36:36.842Z,2.70
2022-09-16T18:39:04.745Z,2.70
2022-09-16T18:41:36.082Z,2.90
2022-09-16T18:44:07.389Z,2.90
2022-09-16T18:46:36.694Z,4.00
2022-09-16T18:49:03.873Z,3.30
2022-09-16T18:51:33.426Z,4.30
2022-09-16T18:54:07.505Z,9.00
2022-09-16T18:56:39.497Z,4.90
2022-09-16T18:59:21.690Z,3.30
2022-09-16T19:01:52.699Z,3.40
2022-09-16T19:04:22.368Z,3.20
2022-09-16T19:06:53.323Z,3.10
2022-09-16T19:09:22.736Z,3.10
2022-09-16T19:11:52.379Z,3.20
2022-09-16T19:14:22.538Z,3.60
2022-09-16T19:16:49.359Z,2.80
2022-09-16T19:19:15.985Z,3.10
2022-09-16T19:21:43.497Z,2.80
2022-09-16T19:24:15.202Z,3.30
2022-09-16T19:26:47.082Z,4.00
2022-09-16T19:29:42.780Z,3.30
2022-09-16T19:32:50.881Z,3.30
2022-09-16T19:35:58.734Z,2.90
2022-09-16T19:39:10.817Z,3.20
2022-09-16T19:42:39.762Z,2.70
2022-09-16T19:45:50.843Z,3.30
2022-09-16T19:49:01.781Z,3.20
2022-09-16T19:52:26.692Z,3.60
2022-09-16T19:55:34.762Z,3.30
2022-09-16T19:58:47.810Z,3.80
2022-09-16T20:01:58.210Z,3.60
2022-09-16T20:07:18.810Z,3.60
2022-09-16T20:10:29.788Z,3.50
2022-09-16T20:20:21.153Z,3.60
2022-09-16T20:23:29.819Z,3.60
2022-09-16T20:26:46.171Z,3.50
2022-09-16T20:29:58.685Z,3.80
2022-09-16T20:32:43.051Z,3.50
2022-09-16T20:35:10.537Z,3.70
2022-09-16T20:37:57.438Z,3.60
2022-09-16T20:40:31.912Z,2.90
2022-09-16T20:43:22.787Z,3.00
2022-09-16T20:46:19.193Z,3.30
2022-09-16T20:48:55.947Z,3.50
2022-09-16T20:51:27.830Z,3.40
2022-09-16T20:54:06.291Z,3.60
2022-09-16T20:57:03.853Z,3.80
2022-09-16T20:59:44.050Z,4.10
2022-09-16T21:02:24.854Z,4.50
2022-09-16T21:05:03.220Z,4.60
2022-09-16T21:07:47.727Z,4.40
2022-09-16T21:10:16.796Z,4.40
2022-09-16T21:12:44.136Z,4.40
2022-09-16T21:15:34.380Z,4.30
2022-09-16T21:18:02.071Z,4.80
2022-09-16T21:20:32.014Z,4.90
2022-09-16T21:22:59.214Z,4.50
2022-09-16T21:25:28.026Z,4.40
2022-09-16T21:28:09.066Z,4.90
2022-09-16T21:30:35.801Z,4.50
2022-09-16T21:33:02.267Z,4.50
2022-09-16T21:35:49.641Z,4.60
2022-09-16T21:38:17.852Z,4.50
2022-09-16T21:40:46.887Z,3.90
2022-09-16T21:43:13.764Z,3.90
2022-09-16T21:45:49.365Z,3.50
2022-09-16T21:48:20.532Z,3.80
2022-09-16T21:51:00.079Z,3.50
2022-09-16T21:53:26.783Z,3.80
2022-09-16T21:56:01.344Z,3.80
2022-09-16T21:58:28.935Z,3.70
2022-09-16T22:01:11.100Z,3.90
2022-09-16T22:03:39.814Z,3.90
2022-09-16T22:06:10.572Z,3.50
2022-09-16T22:08:49.059Z,3.80
2022-09-16T22:11:21.332Z,4.50
2022-09-16T22:13:55.679Z,3.30
2022-09-16T22:16:29.398Z,4.10
2022-09-16T22:19:02.054Z,4.40
2022-09-16T22:21:32.654Z,4.00
2022-09-16T22:24:02.131Z,4.40
2022-09-16T22:26:31.861Z,4.70
2022-09-16T22:29:00.311Z,4.20
2022-09-16T22:31:43.466Z,4.60
2022-09-16T22:34:13.727Z,4.30
2022-09-16T22:36:41.642Z,3.60
2022-09-16T22:39:14.538Z,4.10
2022-09-16T22:41:48.360Z,4.20
2022-09-16T22:44:16.412Z,3.80
2022-09-16T22:46:46.651Z,4.40
2022-09-16T22:49:14.214Z,4.50
2022-09-16T22:51:41.819Z,3.80
2022-09-16T22:54:13.985Z,4.10
2022-09-16T22:56:43.490Z,4.40
2022-09-16T22:59:16.751Z,3.60
2022-09-16T23:01:43.920Z,3.20
2022-09-16T23:04:10.661Z,3.40
2022-09-16T23:06:38.647Z,3.60
2022-09-16T23:09:11.858Z,3.90
2022-09-16T23:11:39.806Z,4.30
2022-09-16T23:14:10.129Z,3.50
2022-09-16T23:16:37.768Z,3.50
2022-09-16T23:19:07.764Z,3.80
2022-09-16T23:21:40.477Z,3.30
2022-09-16T23:24:15.078Z,3.70
2022-09-16T23:26:43.128Z,3.60
2022-09-16T23:29:13.692Z,3.80
2022-09-16T23:31:42.754Z,3.80
2022-09-16T23:34:15.161Z,3.80
2022-09-16T23:36:47.354Z,4.10
2022-09-16T23:39:23.134Z,4.40
2022-09-16T23:42:06.259Z,3.60
2022-09-16T23:44:34.221Z,3.70
2022-09-16T23:47:22.558Z,3.60
2022-09-16T23:49:51.622Z,3.50
2022-09-16T23:52:18.533Z,2.70
2022-09-16T23:54:45.420Z,2.90
2022-09-16T23:57:12.487Z,2.90
2022-09-16T23:59:41.297Z,3.00
